sensor_id;sensor_type;location;lat;lon;timestamp;temperature;humidity
33328;DHT22;19692;52.998;9.116;2023-07-13T00:01:58;15.80;99.90
33328;DHT22;19692;52.998;9.116;2023-07-13T00:04:24;15.80;99.90
33328;DHT22;19692;52.998;9.116;2023-07-13T00:06:51;15.70;99.90
33328;DHT22;19692;52.998;9.116;2023-07-13T00:09:18;15.70;99.90
33328;DHT22;19692;52.998;9.116;2023-07-13T00:11:45;15.70;99.90
33328;DHT22;19692;52.998;9.116;2023-07-13T00:14:13;15.80;99.90
33328;DHT22;19692;52.998;9.116;2023-07-13T00:16:40;15.80;99.90
33328;DHT22;19692;52.998;9.116;2023-07-13T00:19:09;15.80;99.90
33328;DHT22;19692;52.998;9.116;2023-07-13T00:21:35;15.80;99.90
33328;DHT22;19692;52.998;9.116;2023-07-13T00:24:01;15.70;99.90
33328;DHT22;19692;52.998;9.116;2023-07-13T00:26:28;15.80;99.90
33328;DHT22;19692;52.998;9.116;2023-07-13T00:28:54;15.70;99.90
33328;DHT22;19692;52.998;9.116;2023-07-13T00:31:20;15.70;99.90
33328;DHT22;19692;52.998;9.116;2023-07-13T00:33:46;15.60;99.90
33328;DHT22;19692;52.998;9.116;2023-07-13T00:36:12;15.60;99.90
33328;DHT22;19692;52.998;9.116;2023-07-13T00:38:38;15.60;99.90
33328;DHT22;19692;52.998;9.116;2023-07-13T00:41:04;15.60;99.90
33328;DHT22;19692;52.998;9.116;2023-07-13T00:43:30;15.60;99.90
33328;DHT22;19692;52.998;9.116;2023-07-13T00:48:25;15.60;99.90
33328;DHT22;19692;52.998;9.116;2023-07-13T00:50:55;15.70;99.90
33328;DHT22;19692;52.998;9.116;2023-07-13T00:53:22;15.70;99.90
33328;DHT22;19692;52.998;9.116;2023-07-13T00:55:51;15.60;99.90
33328;DHT22;19692;52.998;9.116;2023-07-13T00:58:17;15.60;99.90
33328;DHT22;19692;52.998;9.116;2023-07-13T01:00:44;15.60;99.90
33328;DHT22;19692;52.998;9.116;2023-07-13T01:03:10;15.60;99.90
33328;DHT22;19692;52.998;9.116;2023-07-13T01:05:36;15.60;99.90
33328;DHT22;19692;52.998;9.116;2023-07-13T01:08:03;15.50;99.90
33328;DHT22;19692;52.998;9.116;2023-07-13T01:10:30;15.50;99.90
33328;DHT22;19692;52.998;9.116;2023-07-13T01:13:05;15.50;99.90
33328;DHT22;19692;52.998;9.116;2023-07-13T01:15:43;15.40;99.90
33328;DHT22;19692;52.998;9.116;2023-07-13T01:18:17;15.40;99.90
33328;DHT22;19692;52.998;9.116;2023-07-13T01:20:55;15.40;99.90
33328;DHT22;19692;52.998;9.116;2023-07-13T01:23:21;15.30;99.90
33328;DHT22;19692;52.998;9.116;2023-07-13T01:25:48;15.30;99.90
33328;DHT22;19692;52.998;9.116;2023-07-13T01:28:14;15.20;99.90
33328;DHT22;19692;52.998;9.116;2023-07-13T01:30:42;15.20;99.90
33328;DHT22;19692;52.998;9.116;2023-07-13T01:33:12;15.20;99.90
33328;DHT22;19692;52.998;9.116;2023-07-13T01:35:38;15.20;99.90
33328;DHT22;19692;52.998;9.116;2023-07-13T01:38:05;15.20;99.90
33328;DHT22;19692;52.998;9.116;2023-07-13T01:40:31;15.20;99.90
33328;DHT22;19692;52.998;9.116;2023-07-13T01:42:58;15.20;99.90
33328;DHT22;19692;52.998;9.116;2023-07-13T01:45:24;15.10;99.90
33328;DHT22;19692;52.998;9.116;2023-07-13T01:47:50;15.10;99.90
33328;DHT22;19692;52.998;9.116;2023-07-13T01:50:16;15.10;99.90
33328;DHT22;19692;52.998;9.116;2023-07-13T01:52:42;15.00;99.90
33328;DHT22;19692;52.998;9.116;2023-07-13T01:55:08;15.00;99.90
33328;DHT22;19692;52.998;9.116;2023-07-13T01:57:34;14.90;99.90
33328;DHT22;19692;52.998;9.116;2023-07-13T02:00:02;14.90;99.90
33328;DHT22;19692;52.998;9.116;2023-07-13T02:02:30;14.90;99.90
33328;DHT22;19692;52.998;9.116;2023-07-13T02:04:56;14.90;99.90
33328;DHT22;19692;52.998;9.116;2023-07-13T02:07:22;14.90;99.90
33328;DHT22;19692;52.998;9.116;2023-07-13T02:09:47;14.90;99.90
33328;DHT22;19692;52.998;9.116;2023-07-13T02:12:13;14.90;99.90
33328;DHT22;19692;52.998;9.116;2023-07-13T02:14:39;14.80;99.90
33328;DHT22;19692;52.998;9.116;2023-07-13T02:17:05;14.80;99.90
33328;DHT22;19692;52.998;9.116;2023-07-13T02:19:31;14.70;99.90
33328;DHT22;19692;52.998;9.116;2023-07-13T02:21:59;14.80;99.90
33328;DHT22;19692;52.998;9.116;2023-07-13T02:24:25;14.80;99.90
33328;DHT22;19692;52.998;9.116;2023-07-13T02:26:52;14.80;99.90
33328;DHT22;19692;52.998;9.116;2023-07-13T02:29:17;14.80;99.90
33328;DHT22;19692;52.998;9.116;2023-07-13T02:31:43;14.80;99.90
33328;DHT22;19692;52.998;9.116;2023-07-13T02:34:09;14.80;99.90
33328;DHT22;19692;52.998;9.116;2023-07-13T02:36:34;14.80;99.90
33328;DHT22;19692;52.998;9.116;2023-07-13T02:39:02;14.80;99.90
33328;DHT22;19692;52.998;9.116;2023-07-13T02:41:30;14.70;99.90
33328;DHT22;19692;52.998;9.116;2023-07-13T02:43:58;14.70;99.90
33328;DHT22;19692;52.998;9.116;2023-07-13T02:46:34;14.70;99.90
33328;DHT22;19692;52.998;9.116;2023-07-13T02:49:01;14.70;99.90
33328;DHT22;19692;52.998;9.116;2023-07-13T02:51:27;14.70;99.90
33328;DHT22;19692;52.998;9.116;2023-07-13T02:53:52;14.70;99.90
33328;DHT22;19692;52.998;9.116;2023-07-13T02:56:27;14.70;99.90
33328;DHT22;19692;52.998;9.116;2023-07-13T02:58:53;14.70;99.90
33328;DHT22;19692;52.998;9.116;2023-07-13T03:01:20;14.70;99.90
33328;DHT22;19692;52.998;9.116;2023-07-13T03:03:47;14.70;99.90
33328;DHT22;19692;52.998;9.116;2023-07-13T03:06:15;14.60;99.90
33328;DHT22;19692;52.998;9.116;2023-07-13T03:08:42;14.70;99.90
33328;DHT22;19692;52.998;9.116;2023-07-13T03:11:14;14.70;99.90
33328;DHT22;19692;52.998;9.116;2023-07-13T03:13:42;14.60;99.90
33328;DHT22;19692;52.998;9.116;2023-07-13T03:16:09;14.60;99.90
33328;DHT22;19692;52.998;9.116;2023-07-13T03:18:35;14.60;99.90
33328;DHT22;19692;52.998;9.116;2023-07-13T03:21:02;14.60;99.90
33328;DHT22;19692;52.998;9.116;2023-07-13T03:23:28;14.40;99.90
33328;DHT22;19692;52.998;9.116;2023-07-13T03:26:15;14.40;99.90
33328;DHT22;19692;52.998;9.116;2023-07-13T03:28:45;14.40;99.90
33328;DHT22;19692;52.998;9.116;2023-07-13T03:31:14;14.30;99.90
33328;DHT22;19692;52.998;9.116;2023-07-13T03:33:44;14.30;99.90
33328;DHT22;19692;52.998;9.116;2023-07-13T03:36:17;14.40;99.90
33328;DHT22;19692;52.998;9.116;2023-07-13T03:38:46;14.40;99.90
33328;DHT22;19692;52.998;9.116;2023-07-13T03:41:16;14.50;99.90
33328;DHT22;19692;52.998;9.116;2023-07-13T03:43:42;14.50;99.90
33328;DHT22;19692;52.998;9.116;2023-07-13T03:46:08;14.50;99.90
33328;DHT22;19692;52.998;9.116;2023-07-13T03:48:34;14.50;99.90
33328;DHT22;19692;52.998;9.116;2023-07-13T03:51:00;14.50;99.90
33328;DHT22;19692;52.998;9.116;2023-07-13T03:53:26;14.50;99.90
33328;DHT22;19692;52.998;9.116;2023-07-13T03:55:52;14.50;99.90
33328;DHT22;19692;52.998;9.116;2023-07-13T03:58:33;14.50;99.90
33328;DHT22;19692;52.998;9.116;2023-07-13T04:01:01;14.40;99.90
33328;DHT22;19692;52.998;9.116;2023-07-13T04:03:28;14.50;99.90
33328;DHT22;19692;52.998;9.116;2023-07-13T04:06:02;14.50;99.90
33328;DHT22;19692;52.998;9.116;2023-07-13T04:08:31;14.60;99.90
33328;DHT22;19692;52.998;9.116;2023-07-13T04:10:59;14.60;99.90
33328;DHT22;19692;52.998;9.116;2023-07-13T04:13:26;14.70;99.90
33328;DHT22;19692;52.998;9.116;2023-07-13T04:15:52;14.70;99.90
33328;DHT22;19692;52.998;9.116;2023-07-13T04:18:18;14.70;99.90
33328;DHT22;19692;52.998;9.116;2023-07-13T04:20:48;14.90;99.90
33328;DHT22;19692;52.998;9.116;2023-07-13T04:23:15;14.80;99.90
33328;DHT22;19692;52.998;9.116;2023-07-13T04:25:45;14.90;99.90
33328;DHT22;19692;52.998;9.116;2023-07-13T04:28:11;14.90;99.90
33328;DHT22;19692;52.998;9.116;2023-07-13T04:30:37;14.90;99.90
33328;DHT22;19692;52.998;9.116;2023-07-13T04:33:03;15.00;99.90
33328;DHT22;19692;52.998;9.116;2023-07-13T04:35:29;15.10;99.90
33328;DHT22;19692;52.998;9.116;2023-07-13T04:37:56;15.10;99.90
33328;DHT22;19692;52.998;9.116;2023-07-13T04:40:22;15.20;99.90
33328;DHT22;19692;52.998;9.116;2023-07-13T04:42:48;15.20;99.90
33328;DHT22;19692;52.998;9.116;2023-07-13T04:45:14;15.30;99.90
33328;DHT22;19692;52.998;9.116;2023-07-13T04:47:41;15.30;99.90
33328;DHT22;19692;52.998;9.116;2023-07-13T04:50:08;15.30;99.90
33328;DHT22;19692;52.998;9.116;2023-07-13T04:52:36;15.30;99.90
33328;DHT22;19692;52.998;9.116;2023-07-13T04:55:02;15.40;99.90
33328;DHT22;19692;52.998;9.116;2023-07-13T04:57:28;15.40;99.90
33328;DHT22;19692;52.998;9.116;2023-07-13T04:59:54;15.40;99.90
33328;DHT22;19692;52.998;9.116;2023-07-13T05:02:21;15.50;99.90
33328;DHT22;19692;52.998;9.116;2023-07-13T05:04:47;15.50;99.90
33328;DHT22;19692;52.998;9.116;2023-07-13T05:07:14;15.50;99.90
33328;DHT22;19692;52.998;9.116;2023-07-13T05:09:39;15.50;99.90
33328;DHT22;19692;52.998;9.116;2023-07-13T05:12:08;15.50;99.90
33328;DHT22;19692;52.998;9.116;2023-07-13T05:14:34;15.60;99.90
33328;DHT22;19692;52.998;9.116;2023-07-13T05:17:00;15.60;99.90
33328;DHT22;19692;52.998;9.116;2023-07-13T05:19:28;15.60;99.90
33328;DHT22;19692;52.998;9.116;2023-07-13T05:21:57;15.70;99.90
33328;DHT22;19692;52.998;9.116;2023-07-13T05:24:25;15.80;99.90
33328;DHT22;19692;52.998;9.116;2023-07-13T05:26:52;16.00;99.90
33328;DHT22;19692;52.998;9.116;2023-07-13T05:29:19;16.10;99.90
33328;DHT22;19692;52.998;9.116;2023-07-13T05:31:46;16.20;99.90
33328;DHT22;19692;52.998;9.116;2023-07-13T05:34:12;16.30;99.90
33328;DHT22;19692;52.998;9.116;2023-07-13T05:36:38;16.40;99.90
33328;DHT22;19692;52.998;9.116;2023-07-13T05:39:04;16.50;99.90
33328;DHT22;19692;52.998;9.116;2023-07-13T05:41:29;16.40;99.90
33328;DHT22;19692;52.998;9.116;2023-07-13T05:44:04;16.40;99.90
33328;DHT22;19692;52.998;9.116;2023-07-13T05:46:50;16.30;99.90
33328;DHT22;19692;52.998;9.116;2023-07-13T05:49:29;16.40;99.90
33328;DHT22;19692;52.998;9.116;2023-07-13T05:52:01;16.40;99.90
33328;DHT22;19692;52.998;9.116;2023-07-13T05:55:01;16.50;99.90
33328;DHT22;19692;52.998;9.116;2023-07-13T05:57:47;16.70;99.90
33328;DHT22;19692;52.998;9.116;2023-07-13T06:00:26;16.90;99.90
33328;DHT22;19692;52.998;9.116;2023-07-13T06:03:06;16.90;99.90
33328;DHT22;19692;52.998;9.116;2023-07-13T06:05:41;17.00;99.90
33328;DHT22;19692;52.998;9.116;2023-07-13T06:08:17;16.90;99.90
33328;DHT22;19692;52.998;9.116;2023-07-13T06:10:54;16.80;99.90
33328;DHT22;19692;52.998;9.116;2023-07-13T06:13:58;16.90;99.90
33328;DHT22;19692;52.998;9.116;2023-07-13T06:16:35;17.10;99.90
33328;DHT22;19692;52.998;9.116;2023-07-13T06:19:17;17.30;99.90
33328;DHT22;19692;52.998;9.116;2023-07-13T06:21:46;17.20;99.90
33328;DHT22;19692;52.998;9.116;2023-07-13T06:24:12;17.40;99.90
33328;DHT22;19692;52.998;9.116;2023-07-13T06:26:38;17.40;99.90
33328;DHT22;19692;52.998;9.116;2023-07-13T06:29:03;17.50;99.90
33328;DHT22;19692;52.998;9.116;2023-07-13T06:31:29;17.60;99.90
33328;DHT22;19692;52.998;9.116;2023-07-13T06:33:55;17.70;99.90
33328;DHT22;19692;52.998;9.116;2023-07-13T06:36:20;17.70;99.90
33328;DHT22;19692;52.998;9.116;2023-07-13T06:38:46;17.80;99.90
33328;DHT22;19692;52.998;9.116;2023-07-13T06:41:12;17.90;99.90
33328;DHT22;19692;52.998;9.116;2023-07-13T06:43:38;17.80;99.90
33328;DHT22;19692;52.998;9.116;2023-07-13T06:46:03;17.90;99.90
33328;DHT22;19692;52.998;9.116;2023-07-13T06:48:29;18.10;99.90
33328;DHT22;19692;52.998;9.116;2023-07-13T06:50:55;18.20;99.90
33328;DHT22;19692;52.998;9.116;2023-07-13T06:53:21;18.40;99.90
33328;DHT22;19692;52.998;9.116;2023-07-13T06:55:48;18.40;99.90
33328;DHT22;19692;52.998;9.116;2023-07-13T06:58:15;18.40;99.90
33328;DHT22;19692;52.998;9.116;2023-07-13T07:00:41;18.50;99.90
33328;DHT22;19692;52.998;9.116;2023-07-13T07:03:07;18.30;99.90
33328;DHT22;19692;52.998;9.116;2023-07-13T07:05:33;18.30;99.90
33328;DHT22;19692;52.998;9.116;2023-07-13T07:07:59;18.30;99.90
33328;DHT22;19692;52.998;9.116;2023-07-13T07:10:25;18.50;99.90
33328;DHT22;19692;52.998;9.116;2023-07-13T07:12:51;18.60;99.90
33328;DHT22;19692;52.998;9.116;2023-07-13T07:15:18;18.70;99.90
33328;DHT22;19692;52.998;9.116;2023-07-13T07:17:44;18.60;99.90
33328;DHT22;19692;52.998;9.116;2023-07-13T07:20:10;18.60;99.90
33328;DHT22;19692;52.998;9.116;2023-07-13T07:22:36;18.60;99.90
33328;DHT22;19692;52.998;9.116;2023-07-13T07:25:02;18.70;99.90
33328;DHT22;19692;52.998;9.116;2023-07-13T07:27:28;18.90;99.90
33328;DHT22;19692;52.998;9.116;2023-07-13T07:29:54;19.00;99.90
33328;DHT22;19692;52.998;9.116;2023-07-13T07:32:20;19.10;99.90
33328;DHT22;19692;52.998;9.116;2023-07-13T07:34:46;19.30;99.90
33328;DHT22;19692;52.998;9.116;2023-07-13T07:37:13;19.50;99.90
33328;DHT22;19692;52.998;9.116;2023-07-13T07:39:39;19.40;99.90
33328;DHT22;19692;52.998;9.116;2023-07-13T07:42:05;19.50;99.90
33328;DHT22;19692;52.998;9.116;2023-07-13T07:44:32;19.60;99.90
33328;DHT22;19692;52.998;9.116;2023-07-13T07:46:58;19.70;99.90
33328;DHT22;19692;52.998;9.116;2023-07-13T07:49:24;19.70;99.90
33328;DHT22;19692;52.998;9.116;2023-07-13T07:51:49;19.70;99.90
33328;DHT22;19692;52.998;9.116;2023-07-13T07:54:16;19.70;99.90
33328;DHT22;19692;52.998;9.116;2023-07-13T07:56:42;19.70;99.90
33328;DHT22;19692;52.998;9.116;2023-07-13T07:59:07;19.70;99.90
33328;DHT22;19692;52.998;9.116;2023-07-13T08:01:33;20.00;99.90
33328;DHT22;19692;52.998;9.116;2023-07-13T08:03:59;20.10;99.90
33328;DHT22;19692;52.998;9.116;2023-07-13T08:06:25;20.10;99.90
33328;DHT22;19692;52.998;9.116;2023-07-13T08:08:50;19.90;99.90
33328;DHT22;19692;52.998;9.116;2023-07-13T08:11:17;20.10;99.90
33328;DHT22;19692;52.998;9.116;2023-07-13T08:13:43;19.90;99.90
33328;DHT22;19692;52.998;9.116;2023-07-13T08:16:09;20.10;99.90
33328;DHT22;19692;52.998;9.116;2023-07-13T08:18:35;20.20;99.90
33328;DHT22;19692;52.998;9.116;2023-07-13T08:21:05;20.40;99.90
33328;DHT22;19692;52.998;9.116;2023-07-13T08:23:32;20.50;99.90
33328;DHT22;19692;52.998;9.116;2023-07-13T08:25:58;20.10;99.90
33328;DHT22;19692;52.998;9.116;2023-07-13T08:28:26;20.40;99.90
33328;DHT22;19692;52.998;9.116;2023-07-13T08:30:53;20.60;99.90
33328;DHT22;19692;52.998;9.116;2023-07-13T08:33:20;20.50;99.90
33328;DHT22;19692;52.998;9.116;2023-07-13T08:35:47;20.40;99.90
33328;DHT22;19692;52.998;9.116;2023-07-13T08:38:14;20.70;99.90
33328;DHT22;19692;52.998;9.116;2023-07-13T08:40:41;20.80;99.90
33328;DHT22;19692;52.998;9.116;2023-07-13T08:43:15;20.90;99.90
33328;DHT22;19692;52.998;9.116;2023-07-13T08:46:04;21.10;99.90
33328;DHT22;19692;52.998;9.116;2023-07-13T08:48:39;21.50;99.90
33328;DHT22;19692;52.998;9.116;2023-07-13T08:54:22;21.40;99.90
33328;DHT22;19692;52.998;9.116;2023-07-13T08:56:53;21.30;99.90
33328;DHT22;19692;52.998;9.116;2023-07-13T08:59:24;21.40;99.90
33328;DHT22;19692;52.998;9.116;2023-07-13T09:02:23;21.80;99.90
33328;DHT22;19692;52.998;9.116;2023-07-13T09:07:48;21.80;99.90
33328;DHT22;19692;52.998;9.116;2023-07-13T09:10:29;21.80;99.90
33328;DHT22;19692;52.998;9.116;2023-07-13T09:13:17;21.40;99.90
33328;DHT22;19692;52.998;9.116;2023-07-13T09:15:49;21.50;99.90
33328;DHT22;19692;52.998;9.116;2023-07-13T09:18:33;21.70;99.90
33328;DHT22;19692;52.998;9.116;2023-07-13T09:21:12;21.90;99.90
33328;DHT22;19692;52.998;9.116;2023-07-13T09:23:41;21.70;99.90
33328;DHT22;19692;52.998;9.116;2023-07-13T09:26:12;21.90;99.90
33328;DHT22;19692;52.998;9.116;2023-07-13T09:28:45;22.00;99.90
33328;DHT22;19692;52.998;9.116;2023-07-13T09:31:34;22.20;99.90
33328;DHT22;19692;52.998;9.116;2023-07-13T09:34:09;22.20;99.90
33328;DHT22;19692;52.998;9.116;2023-07-13T09:36:36;22.30;99.90
33328;DHT22;19692;52.998;9.116;2023-07-13T09:44:51;23.00;99.90
33328;DHT22;19692;52.998;9.116;2023-07-13T09:47:24;22.80;99.90
33328;DHT22;19692;52.998;9.116;2023-07-13T09:50:03;22.90;99.90
33328;DHT22;19692;52.998;9.116;2023-07-13T09:52:48;23.00;99.90
33328;DHT22;19692;52.998;9.116;2023-07-13T09:57:57;22.50;99.90
33328;DHT22;19692;52.998;9.116;2023-07-13T10:00:27;22.70;99.90
33328;DHT22;19692;52.998;9.116;2023-07-13T10:03:09;23.00;99.90
33328;DHT22;19692;52.998;9.116;2023-07-13T10:05:44;23.40;99.90
33328;DHT22;19692;52.998;9.116;2023-07-13T10:08:26;23.40;99.90
33328;DHT22;19692;52.998;9.116;2023-07-13T10:11:01;23.20;99.90
33328;DHT22;19692;52.998;9.116;2023-07-13T10:13:53;23.00;99.90
33328;DHT22;19692;52.998;9.116;2023-07-13T10:16:32;22.60;99.90
33328;DHT22;19692;52.998;9.116;2023-07-13T10:19:05;22.70;99.90
33328;DHT22;19692;52.998;9.116;2023-07-13T10:21:39;22.80;99.90
33328;DHT22;19692;52.998;9.116;2023-07-13T10:24:17;23.20;99.90
33328;DHT22;19692;52.998;9.116;2023-07-13T10:26:54;23.80;99.90
33328;DHT22;19692;52.998;9.116;2023-07-13T10:29:25;24.00;99.90
33328;DHT22;19692;52.998;9.116;2023-07-13T10:31:53;24.00;99.90
33328;DHT22;19692;52.998;9.116;2023-07-13T10:34:18;24.20;99.90
33328;DHT22;19692;52.998;9.116;2023-07-13T10:36:47;24.10;99.90
33328;DHT22;19692;52.998;9.116;2023-07-13T10:39:27;24.10;99.90
33328;DHT22;19692;52.998;9.116;2023-07-13T10:42:03;23.80;99.90
33328;DHT22;19692;52.998;9.116;2023-07-13T10:44:32;23.60;99.90
33328;DHT22;19692;52.998;9.116;2023-07-13T10:47:15;23.30;99.90
33328;DHT22;19692;52.998;9.116;2023-07-13T10:49:44;23.00;99.90
33328;DHT22;19692;52.998;9.116;2023-07-13T10:52:48;23.10;99.90
33328;DHT22;19692;52.998;9.116;2023-07-13T10:57:59;23.40;99.90
33328;DHT22;19692;52.998;9.116;2023-07-13T11:03:50;23.10;99.90
33328;DHT22;19692;52.998;9.116;2023-07-13T11:19:27;22.10;99.90
33328;DHT22;19692;52.998;9.116;2023-07-13T11:38:40;17.70;99.90
33328;DHT22;19692;52.998;9.116;2023-07-13T11:41:17;17.50;99.90
33328;DHT22;19692;52.998;9.116;2023-07-13T11:43:45;17.20;99.90
33328;DHT22;19692;52.998;9.116;2023-07-13T11:46:27;17.00;99.90
33328;DHT22;19692;52.998;9.116;2023-07-13T11:48:54;16.80;99.90
33328;DHT22;19692;52.998;9.116;2023-07-13T11:51:27;16.60;99.90
33328;DHT22;19692;52.998;9.116;2023-07-13T11:53:56;16.40;99.90
33328;DHT22;19692;52.998;9.116;2023-07-13T11:56:24;16.20;99.90
33328;DHT22;19692;52.998;9.116;2023-07-13T11:58:53;16.10;99.90
33328;DHT22;19692;52.998;9.116;2023-07-13T12:01:24;15.90;99.90
33328;DHT22;19692;52.998;9.116;2023-07-13T12:03:52;15.90;99.90
33328;DHT22;19692;52.998;9.116;2023-07-13T12:06:29;16.00;99.90
33328;DHT22;19692;52.998;9.116;2023-07-13T12:08:58;16.00;99.90
33328;DHT22;19692;52.998;9.116;2023-07-13T12:11:27;15.90;99.90
33328;DHT22;19692;52.998;9.116;2023-07-13T12:13:53;15.90;99.90
33328;DHT22;19692;52.998;9.116;2023-07-13T12:16:29;15.90;99.90
33328;DHT22;19692;52.998;9.116;2023-07-13T12:18:56;15.80;99.90
33328;DHT22;19692;52.998;9.116;2023-07-13T12:21:36;15.70;99.90
33328;DHT22;19692;52.998;9.116;2023-07-13T12:24:03;15.70;99.90
33328;DHT22;19692;52.998;9.116;2023-07-13T12:26:31;15.60;99.90
33328;DHT22;19692;52.998;9.116;2023-07-13T12:29:00;15.60;99.90
33328;DHT22;19692;52.998;9.116;2023-07-13T12:31:33;15.60;99.90
33328;DHT22;19692;52.998;9.116;2023-07-13T12:34:06;15.60;99.90
33328;DHT22;19692;52.998;9.116;2023-07-13T12:37:00;15.70;99.90
33328;DHT22;19692;52.998;9.116;2023-07-13T12:39:35;15.60;99.90
33328;DHT22;19692;52.998;9.116;2023-07-13T12:45:17;15.80;99.90
33328;DHT22;19692;52.998;9.116;2023-07-13T12:47:44;15.70;99.90
33328;DHT22;19692;52.998;9.116;2023-07-13T12:50:16;15.70;99.90
33328;DHT22;19692;52.998;9.116;2023-07-13T12:52:44;15.80;99.90
33328;DHT22;19692;52.998;9.116;2023-07-13T12:55:18;15.90;99.90
33328;DHT22;19692;52.998;9.116;2023-07-13T12:57:50;15.90;99.90
33328;DHT22;19692;52.998;9.116;2023-07-13T13:00:29;16.00;99.90
33328;DHT22;19692;52.998;9.116;2023-07-13T13:03:07;16.00;99.90
33328;DHT22;19692;52.998;9.116;2023-07-13T13:05:39;15.90;99.90
33328;DHT22;19692;52.998;9.116;2023-07-13T13:08:05;16.00;99.90
33328;DHT22;19692;52.998;9.116;2023-07-13T13:10:31;16.10;99.90
33328;DHT22;19692;52.998;9.116;2023-07-13T13:12:56;16.00;99.90
33328;DHT22;19692;52.998;9.116;2023-07-13T13:15:22;16.10;99.90
33328;DHT22;19692;52.998;9.116;2023-07-13T13:17:49;16.40;99.90
33328;DHT22;19692;52.998;9.116;2023-07-13T13:20:17;16.50;99.90
33328;DHT22;19692;52.998;9.116;2023-07-13T13:22:45;16.70;99.90
33328;DHT22;19692;52.998;9.116;2023-07-13T13:25:12;16.80;99.90
33328;DHT22;19692;52.998;9.116;2023-07-13T13:27:40;17.00;99.90
33328;DHT22;19692;52.998;9.116;2023-07-13T13:30:16;17.20;99.90
33328;DHT22;19692;52.998;9.116;2023-07-13T13:32:45;17.80;99.90
33328;DHT22;19692;52.998;9.116;2023-07-13T13:35:20;18.20;99.90
33328;DHT22;19692;52.998;9.116;2023-07-13T13:37:47;18.60;99.90
33328;DHT22;19692;52.998;9.116;2023-07-13T13:40:20;18.70;99.90
33328;DHT22;19692;52.998;9.116;2023-07-13T13:42:48;18.60;99.90
33328;DHT22;19692;52.998;9.116;2023-07-13T13:45:14;18.50;99.90
33328;DHT22;19692;52.998;9.116;2023-07-13T13:47:43;18.60;99.90
33328;DHT22;19692;52.998;9.116;2023-07-13T13:50:17;18.70;99.90
33328;DHT22;19692;52.998;9.116;2023-07-13T13:52:48;18.80;99.90
33328;DHT22;19692;52.998;9.116;2023-07-13T13:55:17;19.00;99.90
33328;DHT22;19692;52.998;9.116;2023-07-13T13:57:48;19.10;99.90
33328;DHT22;19692;52.998;9.116;2023-07-13T14:00:15;19.10;99.90
33328;DHT22;19692;52.998;9.116;2023-07-13T14:02:45;19.10;99.90
33328;DHT22;19692;52.998;9.116;2023-07-13T14:05:14;19.10;99.90
33328;DHT22;19692;52.998;9.116;2023-07-13T14:07:41;19.10;99.90
33328;DHT22;19692;52.998;9.116;2023-07-13T14:10:15;19.20;99.90
33328;DHT22;19692;52.998;9.116;2023-07-13T14:12:47;19.30;99.90
33328;DHT22;19692;52.998;9.116;2023-07-13T14:15:28;19.30;99.90
33328;DHT22;19692;52.998;9.116;2023-07-13T14:17:56;19.30;99.90
33328;DHT22;19692;52.998;9.116;2023-07-13T14:20:24;19.40;99.90
33328;DHT22;19692;52.998;9.116;2023-07-13T14:22:52;19.50;99.90
33328;DHT22;19692;52.998;9.116;2023-07-13T14:25:19;19.60;99.90
33328;DHT22;19692;52.998;9.116;2023-07-13T14:27:48;19.90;99.90
33328;DHT22;19692;52.998;9.116;2023-07-13T14:30:18;20.10;99.90
33328;DHT22;19692;52.998;9.116;2023-07-13T14:32:45;20.30;99.90
33328;DHT22;19692;52.998;9.116;2023-07-13T14:35:16;20.40;99.90
33328;DHT22;19692;52.998;9.116;2023-07-13T14:37:46;20.50;99.90
33328;DHT22;19692;52.998;9.116;2023-07-13T14:40:45;20.60;99.90
33328;DHT22;19692;52.998;9.116;2023-07-13T14:43:04;20.70;99.90
33328;DHT22;19692;52.998;9.116;2023-07-13T14:45:30;20.40;99.90
33328;DHT22;19692;52.998;9.116;2023-07-13T14:47:57;20.20;99.90
33328;DHT22;19692;52.998;9.116;2023-07-13T14:50:31;20.10;99.90
33328;DHT22;19692;52.998;9.116;2023-07-13T14:52:57;20.20;99.90
33328;DHT22;19692;52.998;9.116;2023-07-13T14:55:23;20.50;99.90
33328;DHT22;19692;52.998;9.116;2023-07-13T14:57:52;20.90;99.90
33328;DHT22;19692;52.998;9.116;2023-07-13T15:00:19;21.00;99.90
33328;DHT22;19692;52.998;9.116;2023-07-13T15:02:50;21.30;99.90
33328;DHT22;19692;52.998;9.116;2023-07-13T15:05:20;21.40;99.90
33328;DHT22;19692;52.998;9.116;2023-07-13T15:07:48;21.30;99.90
33328;DHT22;19692;52.998;9.116;2023-07-13T15:12:48;21.40;99.90
33328;DHT22;19692;52.998;9.116;2023-07-13T15:15:16;21.60;99.90
33328;DHT22;19692;52.998;9.116;2023-07-13T15:17:43;21.70;99.90
33328;DHT22;19692;52.998;9.116;2023-07-13T15:22:54;22.00;99.90
33328;DHT22;19692;52.998;9.116;2023-07-13T15:25:23;21.90;99.90
33328;DHT22;19692;52.998;9.116;2023-07-13T15:27:52;22.20;99.90
33328;DHT22;19692;52.998;9.116;2023-07-13T15:30:18;22.30;99.90
33328;DHT22;19692;52.998;9.116;2023-07-13T15:32:45;22.50;99.90
33328;DHT22;19692;52.998;9.116;2023-07-13T15:35:20;22.40;99.90
33328;DHT22;19692;52.998;9.116;2023-07-13T15:37:48;21.90;99.90
33328;DHT22;19692;52.998;9.116;2023-07-13T15:40:16;21.30;99.90
33328;DHT22;19692;52.998;9.116;2023-07-13T15:42:43;21.10;99.90
33328;DHT22;19692;52.998;9.116;2023-07-13T15:45:19;20.90;99.90
33328;DHT22;19692;52.998;9.116;2023-07-13T15:47:48;20.60;99.90
33328;DHT22;19692;52.998;9.116;2023-07-13T15:50:25;20.40;99.90
33328;DHT22;19692;52.998;9.116;2023-07-13T15:52:53;20.40;99.90
33328;DHT22;19692;52.998;9.116;2023-07-13T15:55:20;20.20;99.90
33328;DHT22;19692;52.998;9.116;2023-07-13T15:57:49;20.00;99.90
33328;DHT22;19692;52.998;9.116;2023-07-13T16:00:20;19.70;99.90
33328;DHT22;19692;52.998;9.116;2023-07-13T16:02:49;19.50;99.90
33328;DHT22;19692;52.998;9.116;2023-07-13T16:05:15;19.30;99.90
33328;DHT22;19692;52.998;9.116;2023-07-13T16:07:46;19.10;99.90
33328;DHT22;19692;52.998;9.116;2023-07-13T16:10:15;18.90;99.90
33328;DHT22;19692;52.998;9.116;2023-07-13T16:12:43;18.70;99.90
33328;DHT22;19692;52.998;9.116;2023-07-13T16:15:17;18.50;99.90
33328;DHT22;19692;52.998;9.116;2023-07-13T16:17:46;18.10;99.90
33328;DHT22;19692;52.998;9.116;2023-07-13T16:20:13;17.90;99.90
33328;DHT22;19692;52.998;9.116;2023-07-13T16:22:42;17.70;99.90
33328;DHT22;19692;52.998;9.116;2023-07-13T16:25:19;17.40;99.90
33328;DHT22;19692;52.998;9.116;2023-07-13T16:27:50;17.30;99.90
33328;DHT22;19692;52.998;9.116;2023-07-13T16:30:24;17.10;99.90
33328;DHT22;19692;52.998;9.116;2023-07-13T16:32:52;17.00;99.90
33328;DHT22;19692;52.998;9.116;2023-07-13T16:35:20;16.90;99.90
33328;DHT22;19692;52.998;9.116;2023-07-13T16:37:47;16.90;99.90
33328;DHT22;19692;52.998;9.116;2023-07-13T16:42:51;16.90;99.90
33328;DHT22;19692;52.998;9.116;2023-07-13T16:45:21;16.90;99.90
33328;DHT22;19692;52.998;9.116;2023-07-13T16:47:50;16.80;99.90
33328;DHT22;19692;52.998;9.116;2023-07-13T16:50:19;16.70;99.90